createdAt,value
2023-05-02T00:00:36.518Z,95535.72
2023-05-02T00:03:05.648Z,95542.50
2023-05-02T00:05:35.457Z,95540.06
2023-05-02T00:08:03.324Z,95534.09
2023-05-02T00:10:31.032Z,95541.41
2023-05-02T00:12:58.686Z,95534.91
2023-05-02T00:15:27.395Z,95534.63
2023-05-02T00:17:55.131Z,95529.75
2023-05-02T00:20:23.150Z,95529.22
2023-05-02T00:22:52.244Z,95527.59
2023-05-02T00:25:19.980Z,95533.56
2023-05-02T00:27:48.889Z,95529.22
2023-05-02T00:30:16.543Z,95528.16
2023-05-02T00:32:44.247Z,95531.94
2023-05-02T00:35:12.326Z,95528.97
2023-05-02T00:37:40.095Z,95526.84
2023-05-02T00:40:10.232Z,95529.00
2023-05-02T00:42:37.861Z,95527.38
2023-05-02T00:45:06.895Z,95530.09
2023-05-02T00:47:34.945Z,95539.31
2023-05-02T00:50:05.406Z,95535.00
2023-05-02T00:52:34.143Z,95534.75
2023-05-02T00:55:03.513Z,95532.06
2023-05-02T00:57:34.020Z,95528.56
2023-05-02T01:00:02.075Z,95535.03
2023-05-02T01:02:39.093Z,95535.88
2023-05-02T01:05:12.677Z,95528.00
2023-05-02T01:07:55.540Z,95532.38
2023-05-02T01:10:31.597Z,95539.97
2023-05-02T01:13:04.581Z,95540.50
2023-05-02T01:15:34.434Z,95538.63
2023-05-02T01:18:04.436Z,95533.19
2023-05-02T01:20:38.487Z,95538.88
2023-05-02T01:23:12.454Z,95535.38
2023-05-02T01:25:54.091Z,95538.34
2023-05-02T01:28:36.448Z,95546.19
2023-05-02T01:31:07.913Z,95539.41
2023-05-02T01:33:36.885Z,95544.03
2023-05-02T01:36:05.151Z,95542.94
2023-05-02T01:38:35.262Z,95547.00
2023-05-02T01:41:05.352Z,95550.53
2023-05-02T01:43:36.178Z,95549.44
2023-05-02T01:46:07.894Z,95550.84
2023-05-02T01:48:37.035Z,95544.06
2023-05-02T01:51:07.352Z,95545.16
2023-05-02T01:53:36.849Z,95556.78
2023-05-02T01:56:05.912Z,95553.25
2023-05-02T01:58:37.140Z,95554.63
2023-05-02T02:01:07.272Z,95560.03
2023-05-02T02:03:35.163Z,95554.88
2023-05-02T02:06:04.436Z,95557.31
2023-05-02T02:08:32.208Z,95558.13
2023-05-02T02:11:05.315Z,95567.59
2023-05-02T02:13:38.430Z,95566.25
2023-05-02T02:16:12.392Z,95567.34
2023-05-02T02:18:40.636Z,95568.66
2023-05-02T02:21:10.777Z,95571.13
2023-05-02T02:23:43.343Z,95574.66
2023-05-02T02:26:11.876Z,95570.59
2023-05-02T02:28:40.502Z,95575.47
2023-05-02T02:31:09.792Z,95570.59
2023-05-02T02:33:37.581Z,95577.88
2023-05-02T02:36:12.970Z,95575.19
2023-05-02T02:38:47.101Z,95578.72
2023-05-02T02:41:21.080Z,95574.06
2023-05-02T02:44:00.431Z,95574.66
2023-05-02T02:46:41.992Z,95575.19
2023-05-02T02:49:24.412Z,95578.97
2023-05-02T02:51:59.372Z,95579.50
2023-05-02T02:54:34.225Z,95578.44
2023-05-02T02:57:08.678Z,95582.75
2023-05-02T02:59:41.667Z,95583.84
2023-05-02T03:02:16.055Z,95585.47
2023-05-02T03:04:45.504Z,95593.31
2023-05-02T03:07:13.403Z,95591.16
2023-05-02T03:09:45.173Z,95597.66
2023-05-02T03:12:13.225Z,95593.31
2023-05-02T03:14:41.610Z,95597.09
2023-05-02T03:17:10.762Z,95603.31
2023-05-02T03:19:38.761Z,95597.38
2023-05-02T03:22:06.643Z,95596.84
2023-05-02T03:24:34.289Z,95596.81
2023-05-02T03:27:02.105Z,95592.78
2023-05-02T03:29:29.827Z,95594.94
2023-05-02T03:31:57.627Z,95596.56
2023-05-02T03:34:26.732Z,95603.59
2023-05-02T03:36:54.395Z,95598.44
2023-05-02T03:39:22.109Z,95600.88
2023-05-02T03:41:49.789Z,95606.03
2023-05-02T03:44:17.440Z,95608.47
2023-05-02T03:46:47.126Z,95606.28
2023-05-02T03:49:14.836Z,95610.34
2023-05-02T03:51:43.873Z,95614.94
2023-05-02T03:54:11.589Z,95614.41
2023-05-02T03:56:41.307Z,95613.31
2023-05-02T03:59:10.533Z,95623.00
2023-05-02T04:01:38.247Z,95616.78
2023-05-02T04:04:06.366Z,95620.59
2023-05-02T04:06:34.126Z,95627.88
2023-05-02T04:09:03.219Z,95637.31
2023-05-02T04:11:30.935Z,95632.19
2023-05-02T04:13:58.613Z,95640.56
2023-05-02T04:16:26.376Z,95638.13
2023-05-02T04:18:54.066Z,95641.34
2023-05-02T04:21:21.767Z,95642.69
2023-05-02T04:23:55.645Z,95641.91
2023-05-02T04:26:24.731Z,95650.84
2023-05-02T04:28:55.422Z,95653.56
2023-05-02T04:34:10.672Z,95657.09
2023-05-02T04:36:45.678Z,95657.38
2023-05-02T04:39:22.703Z,95662.25
2023-05-02T04:41:57.922Z,95661.75
2023-05-02T04:44:44.005Z,95662.25
2023-05-02T04:47:17.731Z,95667.41
2023-05-02T04:50:34.967Z,95671.19
2023-05-02T04:53:10.010Z,95672.28
2023-05-02T04:55:40.723Z,95679.88
2023-05-02T05:01:27.906Z,95690.44
2023-05-02T05:03:55.792Z,95689.09
2023-05-02T05:06:41.999Z,95695.31
2023-05-02T05:12:29.162Z,95700.75
2023-05-02T05:15:04.225Z,95705.91
2023-05-02T05:17:38.084Z,95708.09
2023-05-02T05:20:11.545Z,95710.53
2023-05-02T05:22:45.021Z,95714.59
2023-05-02T05:25:21.433Z,95710.50
2023-05-02T05:27:52.535Z,95718.91
2023-05-02T05:30:39.879Z,95715.91
2023-05-02T05:33:13.762Z,95724.28
2023-05-02T05:35:47.532Z,95718.06
2023-05-02T05:41:14.812Z,95724.25
2023-05-02T05:43:56.273Z,95734.84
2023-05-02T05:46:34.084Z,95740.53
2023-05-02T05:49:10.201Z,95740.50
2023-05-02T05:51:37.843Z,95729.94
2023-05-02T05:54:23.674Z,95742.69
2023-05-02T05:56:54.518Z,95749.69
2023-05-02T05:59:39.977Z,95753.22
2023-05-02T06:04:44.323Z,95755.91
2023-05-02T06:07:12.009Z,95753.72
2023-05-02T06:09:39.681Z,95745.00
2023-05-02T06:12:07.425Z,95747.97
2023-05-02T06:14:35.226Z,95754.75
2023-05-02T06:17:02.937Z,95755.00
2023-05-02T06:19:30.908Z,95758.53
2023-05-02T06:21:59.976Z,95759.88
2023-05-02T06:24:27.745Z,95765.78
2023-05-02T06:26:55.407Z,95766.00
2023-05-02T06:29:23.091Z,95761.84
2023-05-02T06:31:51.619Z,95773.31
2023-05-02T06:34:19.399Z,95769.72
2023-05-02T06:36:47.111Z,95759.34
2023-05-02T06:39:16.178Z,95754.72
2023-05-02T06:41:43.950Z,95759.84
2023-05-02T06:44:11.659Z,95768.44
2023-05-02T06:46:39.426Z,95772.41
2023-05-02T06:49:07.384Z,95769.41
2023-05-02T06:51:35.102Z,95771.59
2023-05-02T06:54:02.866Z,95774.00
2023-05-02T06:56:32.277Z,95769.91
2023-05-02T06:59:00.095Z,95777.16
2023-05-02T07:01:27.988Z,95782.97
2023-05-02T07:03:55.741Z,95789.69
2023-05-02T07:06:23.497Z,95790.56
2023-05-02T07:08:51.339Z,95793.47
2023-05-02T07:11:19.291Z,95790.75
2023-05-02T07:13:48.328Z,95793.47
2023-05-02T07:16:16.192Z,95789.78
2023-05-02T07:18:45.716Z,95779.72
2023-05-02T07:21:13.781Z,95779.97
2023-05-02T07:23:41.463Z,95785.25
2023-05-02T07:26:09.204Z,95778.66
2023-05-02T07:28:36.886Z,95773.91
2023-05-02T07:31:06.030Z,95775.31
2023-05-02T07:33:33.720Z,95772.97
2023-05-02T07:36:03.120Z,95779.75
2023-05-02T07:38:30.943Z,95773.50
2023-05-02T07:40:59.852Z,95776.13
2023-05-02T07:43:27.968Z,95773.47
2023-05-02T07:45:56.202Z,95766.63
2023-05-02T07:48:27.625Z,95777.81
2023-05-02T07:50:55.696Z,95780.81
2023-05-02T07:53:23.433Z,95780.19
2023-05-02T07:55:51.159Z,95775.34
2023-05-02T07:58:18.880Z,95779.03
2023-05-02T08:00:46.666Z,95791.88
2023-05-02T08:03:14.724Z,95793.16
2023-05-02T08:05:44.025Z,95795.72
2023-05-02T08:08:11.691Z,95786.31
2023-05-02T08:10:39.407Z,95786.31
2023-05-02T08:13:07.117Z,95793.50
2023-05-02T08:15:35.034Z,95797.69
2023-05-02T08:18:02.833Z,95796.38
2023-05-02T08:20:30.883Z,95787.84
2023-05-02T08:23:00.459Z,95794.22
2023-05-02T08:25:28.322Z,95794.50
2023-05-02T08:27:55.982Z,95795.47
2023-05-02T08:30:23.729Z,95787.78
2023-05-02T08:32:51.487Z,95798.94
2023-05-02T08:35:19.302Z,95786.47
2023-05-02T08:37:46.984Z,95792.13
2023-05-02T08:40:24.616Z,95794.84
2023-05-02T08:42:58.366Z,95787.34
2023-05-02T08:45:26.076Z,95803.66
2023-05-02T08:47:55.088Z,95796.13
2023-05-02T08:50:23.683Z,95790.84
2023-05-02T08:52:52.839Z,95786.50
2023-05-02T08:55:27.721Z,95787.38
2023-05-02T08:57:58.608Z,95792.78
2023-05-02T09:00:26.476Z,95804.97
2023-05-02T09:03:06.560Z,95808.50
2023-05-02T09:05:41.684Z,95807.38
2023-05-02T09:08:10.337Z,95802.50
2023-05-02T09:10:43.032Z,95801.50
2023-05-02T09:13:33.640Z,95810.75
2023-05-02T09:16:02.741Z,95808.09
2023-05-02T09:18:32.874Z,95805.97
2023-05-02T09:21:01.720Z,95802.34
2023-05-02T09:23:37.622Z,95810.09
2023-05-02T09:26:21.164Z,95817.44
2023-05-02T09:28:50.040Z,95803.56
2023-05-02T09:31:26.884Z,95823.03
2023-05-02T09:34:10.683Z,95816.84
2023-05-02T09:36:41.724Z,95810.69
2023-05-02T09:39:11.497Z,95816.31
2023-05-02T09:41:44.199Z,95813.13
2023-05-02T09:44:13.331Z,95814.16
2023-05-02T09:46:42.845Z,95812.00
2023-05-02T09:49:10.909Z,95809.38
2023-05-02T09:51:38.799Z,95820.34
2023-05-02T09:54:06.528Z,95816.00
2023-05-02T09:56:56.322Z,95806.13
2023-05-02T09:59:24.568Z,95809.88
2023-05-02T10:02:00.088Z,95809.72
2023-05-02T10:04:28.292Z,95814.94
2023-05-02T10:06:56.945Z,95816.13
2023-05-02T10:09:24.981Z,95817.53
2023-05-02T10:11:56.235Z,95823.91
2023-05-02T10:14:29.569Z,95825.91
2023-05-02T10:17:02.575Z,95828.00
2023-05-02T10:19:34.605Z,95827.00
2023-05-02T10:22:03.190Z,95830.72
2023-05-02T10:24:33.644Z,95832.19
2023-05-02T10:27:05.594Z,95824.09
2023-05-02T10:29:33.665Z,95811.13
2023-05-02T10:32:02.234Z,95815.88
2023-05-02T10:34:33.833Z,95814.81
2023-05-02T10:37:02.294Z,95807.78
2023-05-02T10:39:31.303Z,95809.38
2023-05-02T10:42:02.213Z,95805.59
2023-05-02T10:44:38.741Z,95809.72
2023-05-02T10:47:28.029Z,95799.13
2023-05-02T10:49:59.245Z,95798.59
2023-05-02T10:52:29.128Z,95800.19
2023-05-02T10:55:16.715Z,95792.72
2023-05-02T10:58:22.551Z,95796.22
2023-05-02T11:00:51.816Z,95802.69
2023-05-02T11:03:57.558Z,95789.34
2023-05-02T11:06:26.177Z,95801.03
2023-05-02T11:08:54.220Z,95802.75
2023-05-02T11:11:41.408Z,95804.56
2023-05-02T11:14:09.516Z,95811.66
2023-05-02T11:17:12.273Z,95821.03
2023-05-02T11:20:26.514Z,95822.66
2023-05-02T11:22:55.712Z,95829.47
2023-05-02T11:25:35.061Z,95832.69
2023-05-02T11:28:03.291Z,95841.47
2023-05-02T11:30:45.009Z,95857.75
2023-05-02T11:33:20.000Z,95872.03
2023-05-02T11:35:49.141Z,95881.81
2023-05-02T11:38:18.749Z,95896.31
2023-05-02T11:40:54.646Z,95909.34
2023-05-02T11:43:22.923Z,95916.88
2023-05-02T11:45:50.936Z,95914.69
2023-05-02T11:48:22.673Z,95916.91
2023-05-02T11:50:51.886Z,95918.00
2023-05-02T11:53:23.433Z,95920.44
2023-05-02T11:55:52.800Z,95922.78
2023-05-02T11:58:21.766Z,95930.31
2023-05-02T12:00:51.043Z,95931.66
2023-05-02T12:03:25.294Z,95934.09
2023-05-02T12:05:53.877Z,95934.31
2023-05-02T12:08:26.449Z,95919.53
2023-05-02T12:10:56.045Z,95904.63
2023-05-02T12:13:26.250Z,95914.44
2023-05-02T12:18:30.123Z,95903.38
2023-05-02T12:20:58.186Z,95891.00
2023-05-02T12:23:27.349Z,95893.31
2023-05-02T12:25:55.085Z,95886.16
2023-05-02T12:28:23.961Z,95880.94
2023-05-02T12:30:52.719Z,95884.06
2023-05-02T12:33:20.840Z,95878.25
2023-05-02T12:35:51.029Z,95886.88
2023-05-02T12:38:21.118Z,95887.31
2023-05-02T12:40:50.609Z,95882.91
2023-05-02T12:43:18.877Z,95889.41
2023-05-02T12:45:48.486Z,95890.34
2023-05-02T12:48:26.912Z,95896.63
2023-05-02T12:50:56.650Z,95892.91
2023-05-02T12:53:41.431Z,95890.41
2023-05-02T12:56:10.393Z,95890.56
2023-05-02T12:58:45.772Z,95897.00
2023-05-02T13:01:14.196Z,95892.06
2023-05-02T13:03:42.884Z,95884.59
2023-05-02T13:06:12.117Z,95869.53
2023-05-02T13:08:39.955Z,95864.66
2023-05-02T13:11:07.779Z,95865.09
2023-05-02T13:13:35.624Z,95861.97
2023-05-02T13:16:03.760Z,95866.63
2023-05-02T13:18:31.606Z,95869.50
2023-05-02T13:20:59.310Z,95864.41
2023-05-02T13:23:28.371Z,95865.63
2023-05-02T13:25:56.059Z,95870.31
2023-05-02T13:28:23.749Z,95862.44
2023-05-02T13:30:51.479Z,95863.66
2023-05-02T13:33:19.242Z,95861.53
2023-05-02T13:35:47.070Z,95855.50
2023-05-02T13:38:14.705Z,95859.94
2023-05-02T13:40:43.830Z,95855.28
2023-05-02T13:43:11.493Z,95859.31
2023-05-02T13:45:39.502Z,95853.25
2023-05-02T13:48:07.775Z,95859.41
2023-05-02T13:50:37.518Z,95861.53
2023-05-02T13:53:05.245Z,95870.34
2023-05-02T13:55:32.926Z,95866.63
2023-05-02T13:58:02.733Z,95868.63
2023-05-02T14:00:30.439Z,95863.91
2023-05-02T14:02:58.240Z,95865.16
2023-05-02T14:05:26.138Z,95868.69
2023-05-02T14:07:53.811Z,95874.47
2023-05-02T14:10:21.497Z,95877.72
2023-05-02T14:12:49.313Z,95884.44
2023-05-02T14:15:18.493Z,95891.22
2023-05-02T14:17:46.211Z,95893.53
2023-05-02T14:20:13.940Z,95906.31
2023-05-02T14:22:44.521Z,95903.03
2023-05-02T14:25:12.917Z,95905.53
2023-05-02T14:27:40.662Z,95913.25
2023-05-02T14:30:11.011Z,95913.53
2023-05-02T14:32:40.222Z,95914.84
2023-05-02T14:35:08.908Z,95900.47
2023-05-02T14:37:36.635Z,95906.22
2023-05-02T14:40:04.751Z,95907.06
2023-05-02T14:42:32.755Z,95914.81
2023-05-02T14:45:02.284Z,95926.28
2023-05-02T14:47:30.834Z,95916.38
2023-05-02T14:50:00.206Z,95924.97
2023-05-02T14:52:28.365Z,95924.81
2023-05-02T14:54:56.092Z,95930.41
2023-05-02T14:57:23.868Z,95927.31
2023-05-02T14:59:51.634Z,95923.78
2023-05-02T15:02:19.470Z,95927.31
2023-05-02T15:04:47.323Z,95924.91
2023-05-02T15:07:16.688Z,95920.03
2023-05-02T15:09:44.635Z,95905.59
2023-05-02T15:12:12.293Z,95916.69
2023-05-02T15:14:39.989Z,95916.44
2023-05-02T15:17:07.918Z,95910.56
2023-05-02T15:19:35.692Z,95912.06
2023-05-02T15:22:03.395Z,95907.19
2023-05-02T15:24:32.454Z,95897.84
2023-05-02T15:27:00.147Z,95887.88
2023-05-02T15:29:28.131Z,95889.38
2023-05-02T15:31:55.869Z,95894.81
2023-05-02T15:34:23.597Z,95886.66
2023-05-02T15:36:52.353Z,95892.25
2023-05-02T15:39:20.090Z,95893.56
2023-05-02T15:41:49.156Z,95892.84
2023-05-02T15:44:16.854Z,95894.31
2023-05-02T15:46:46.883Z,95888.28
2023-05-02T15:49:15.107Z,95890.28
2023-05-02T15:51:42.795Z,95880.13
2023-05-02T15:54:10.477Z,95883.56
2023-05-02T15:56:38.808Z,95891.31
2023-05-02T15:59:07.915Z,95890.88
2023-05-02T16:01:35.655Z,95893.56
2023-05-02T16:04:06.089Z,95898.78
2023-05-02T16:06:34.128Z,95883.47
2023-05-02T16:09:03.459Z,95884.44
2023-05-02T16:11:31.658Z,95882.47
2023-05-02T16:14:00.225Z,95883.69
2023-05-02T16:16:29.717Z,95879.72
2023-05-02T16:18:57.411Z,95877.53
2023-05-02T16:21:25.147Z,95896.41
2023-05-02T16:23:52.802Z,95905.25
2023-05-02T16:26:21.435Z,95901.31
2023-05-02T16:28:49.184Z,95906.19
2023-05-02T16:31:17.169Z,95903.97
2023-05-02T16:33:46.612Z,95911.22
2023-05-02T16:36:14.717Z,95925.56
2023-05-02T16:38:42.531Z,95932.28
2023-05-02T16:41:10.276Z,95940.72
2023-05-02T16:43:38.235Z,95950.13
2023-05-02T16:46:07.364Z,95960.56
2023-05-02T16:48:35.687Z,95968.22
2023-05-02T16:51:04.928Z,95979.19
2023-05-02T16:53:32.725Z,95993.66
2023-05-02T16:56:00.444Z,95995.56
2023-05-02T16:58:29.631Z,96001.00
2023-05-02T17:00:57.403Z,96007.09
2023-05-02T17:03:25.187Z,96013.63
2023-05-02T17:05:52.852Z,96019.16
2023-05-02T17:08:22.294Z,96032.81
2023-05-02T17:10:50.578Z,96033.94
2023-05-02T17:13:18.310Z,96035.41
2023-05-02T17:15:46.401Z,96041.66
2023-05-02T17:18:14.164Z,96041.16
2023-05-02T17:20:42.175Z,96034.97
2023-05-02T17:23:10.378Z,96040.94
2023-05-02T17:25:39.528Z,96039.84
2023-05-02T17:28:07.730Z,96044.44
2023-05-02T17:30:35.643Z,96056.69
2023-05-02T17:33:03.459Z,96051.25
2023-05-02T17:35:31.635Z,96058.81
2023-05-02T17:37:59.386Z,96058.81
2023-05-02T17:40:27.117Z,96056.88
2023-05-02T17:42:57.405Z,96073.72
2023-05-02T17:45:25.184Z,96067.75
2023-05-02T17:47:53.188Z,96073.16
2023-05-02T17:50:20.946Z,96067.22
2023-05-02T17:52:48.616Z,96071.00
2023-05-02T17:55:18.868Z,96057.97
2023-05-02T17:57:46.831Z,96070.44
2023-05-02T18:00:16.934Z,96071.00
2023-05-02T18:02:44.817Z,96079.38
2023-05-02T18:05:12.684Z,96080.72
2023-05-02T18:07:40.411Z,96079.63
2023-05-02T18:10:08.931Z,96076.91
2023-05-02T18:12:36.746Z,96074.75
2023-05-02T18:15:05.839Z,96069.03
2023-05-02T18:17:35.295Z,96071.44
2023-05-02T18:20:04.221Z,96073.59
2023-05-02T18:22:33.520Z,96076.56
2023-05-02T18:25:01.869Z,96076.03
2023-05-02T18:27:29.820Z,96078.22
2023-05-02T18:29:57.551Z,96082.56
2023-05-02T18:32:26.115Z,96083.91
2023-05-02T18:34:55.352Z,96098.00
2023-05-02T18:37:31.000Z,96095.25
2023-05-02T18:39:58.870Z,96092.81
2023-05-02T18:42:26.628Z,96100.13
2023-05-02T18:44:54.453Z,96095.50
2023-05-02T18:47:24.354Z,96104.69
2023-05-02T18:49:52.084Z,96097.31
2023-05-02T18:52:21.095Z,96110.00
2023-05-02T18:54:48.724Z,96106.16
2023-05-02T18:57:16.740Z,96113.69
2023-05-02T18:59:44.473Z,96114.47
2023-05-02T19:02:12.202Z,96118.44
2023-05-02T19:04:39.901Z,96115.69
2023-05-02T19:07:07.665Z,96116.44
2023-05-02T19:09:36.713Z,96111.25
2023-05-02T19:12:04.595Z,96126.41
2023-05-02T19:14:33.210Z,96124.53
2023-05-02T19:17:00.919Z,96127.75
2023-05-02T19:19:28.618Z,96130.75
2023-05-02T19:21:56.598Z,96135.56
2023-05-02T19:24:24.491Z,96138.47
2023-05-02T19:26:53.886Z,96141.09
2023-05-02T19:29:21.659Z,96141.53
2023-05-02T19:31:49.342Z,96143.16
2023-05-02T19:34:17.063Z,96144.22
2023-05-02T19:36:44.746Z,96148.31
2023-05-02T19:39:13.173Z,96142.09
2023-05-02T19:41:42.439Z,96148.34
2023-05-02T19:44:11.526Z,96158.03
2023-05-02T19:46:39.344Z,96155.50
2023-05-02T19:49:07.113Z,96159.97
2023-05-02T19:51:35.306Z,96149.34
2023-05-02T19:54:02.996Z,96167.97
2023-05-02T19:56:30.912Z,96164.44
2023-05-02T19:58:58.644Z,96160.06
2023-05-02T20:01:29.172Z,96163.78
2023-05-02T20:03:56.992Z,96165.09
2023-05-02T20:06:25.479Z,96164.84
2023-05-02T20:08:53.263Z,96167.72
2023-05-02T20:11:22.931Z,96163.91
2023-05-02T20:13:50.617Z,96162.78
2023-05-02T20:16:18.480Z,96170.78
2023-05-02T20:18:47.589Z,96170.06
2023-05-02T20:21:15.894Z,96182.03
2023-05-02T20:23:44.975Z,96179.22
2023-05-02T20:26:14.037Z,96178.06
2023-05-02T20:28:41.724Z,96184.69
2023-05-02T20:31:09.371Z,96184.66
2023-05-02T20:33:44.647Z,96190.03
2023-05-02T20:36:15.697Z,96173.75
2023-05-02T20:38:44.571Z,96175.41
2023-05-02T20:41:13.868Z,96181.63
2023-05-02T20:43:44.251Z,96180.63
2023-05-02T20:46:12.661Z,96182.75
2023-05-02T20:48:40.575Z,96180.56
2023-05-02T20:51:08.783Z,96176.38
2023-05-02T20:53:38.156Z,96180.56
2023-05-02T20:56:06.752Z,96172.06
2023-05-02T20:58:34.562Z,96175.06
2023-05-02T21:01:02.360Z,96173.34
2023-05-02T21:03:30.037Z,96171.03
2023-05-02T21:05:59.529Z,96175.50
2023-05-02T21:08:27.221Z,96169.06
2023-05-02T21:10:56.284Z,96173.94
2023-05-02T21:13:24.013Z,96177.84
2023-05-02T21:15:51.787Z,96179.63
2023-05-02T21:18:19.500Z,96176.50
2023-05-02T21:20:49.069Z,96182.00
2023-05-02T21:23:16.778Z,96180.13
2023-05-02T21:25:44.431Z,96173.69
2023-05-02T21:28:13.495Z,96164.94
2023-05-02T21:30:41.171Z,96170.34
2023-05-02T21:33:09.413Z,96164.84
2023-05-02T21:35:37.200Z,96176.31
2023-05-02T21:38:04.897Z,96171.19
2023-05-02T21:40:34.798Z,96172.22
2023-05-02T21:43:02.488Z,96173.44
2023-05-02T21:45:32.731Z,96176.41
2023-05-02T21:48:01.302Z,96180.97
2023-05-02T21:50:29.371Z,96177.38
2023-05-02T21:52:57.037Z,96177.00
2023-05-02T21:55:24.707Z,96175.94
2023-05-02T21:57:52.374Z,96174.47
2023-05-02T22:00:20.280Z,96176.06
2023-05-02T22:02:49.431Z,96167.66
2023-05-02T22:05:17.356Z,96169.31
2023-05-02T22:07:44.990Z,96173.75
2023-05-02T22:10:13.236Z,96169.31
2023-05-02T22:12:40.976Z,96174.00
2023-05-02T22:15:10.439Z,96172.97
2023-05-02T22:17:38.293Z,96168.88
2023-05-02T22:20:10.096Z,96166.88
2023-05-02T22:22:37.733Z,96166.44
2023-05-02T22:25:06.134Z,96165.09
2023-05-02T22:27:33.883Z,96170.41
2023-05-02T22:30:01.664Z,96171.69
2023-05-02T22:32:29.557Z,96168.88
2023-05-02T22:34:57.230Z,96169.81
2023-05-02T22:37:26.256Z,96179.88
2023-05-02T22:39:54.448Z,96171.66
2023-05-02T22:42:22.282Z,96172.03
2023-05-02T22:44:54.469Z,96174.22
2023-05-02T22:47:22.738Z,96171.88
2023-05-02T22:49:51.049Z,96183.56
2023-05-02T22:58:29.115Z,96189.13
2023-05-02T23:00:55.830Z,96186.44
2023-05-02T23:03:22.284Z,96178.63
2023-05-02T23:05:48.680Z,96185.63
2023-05-02T23:08:15.003Z,96185.19
2023-05-02T23:10:41.380Z,96186.31
2023-05-02T23:13:07.712Z,96182.81
2023-05-02T23:15:34.709Z,96173.13
2023-05-02T23:18:01.097Z,96179.31
2023-05-02T23:20:27.558Z,96179.09
2023-05-02T23:22:53.918Z,96177.44
2023-05-02T23:25:20.947Z,96169.50
2023-05-02T23:27:47.213Z,96165.63
2023-05-02T23:30:13.650Z,96172.72
2023-05-02T23:32:40.661Z,96172.41
2023-05-02T23:35:07.950Z,96171.00
2023-05-02T23:37:34.431Z,96166.22
2023-05-02T23:40:01.126Z,96165.25
2023-05-02T23:42:28.124Z,96164.06
2023-05-02T23:44:56.881Z,96153.50
2023-05-02T23:47:26.055Z,96161.06
2023-05-02T23:49:53.253Z,96166.31
2023-05-02T23:52:19.652Z,96164.28
2023-05-02T23:54:46.124Z,96161.03
2023-05-02T23:57:12.420Z,96160.66
2023-05-02T23:59:38.747Z,96169.75
